Terminal Aerodrome Forecast
Issued by NWS

Home | Current Version | Previous Version | Text Only | Print | Product List | Glossary Off
Versions: 1 2 3 4 5 6 7 8 9 10 11 12 13 14 15 16

227
FTUS43 KICT 171726
TAFSLN
TAF
KSLN 171726Z 1718/1818 32010KT P6SM FEW250
     FM172200 VRB04KT P6SM SKC
     FM180200 18006KT P6SM FEW250
     FM181500 21011KT P6SM SCT200=

USA.gov is the U.S. government's official web portal to all federal, state and local government web resources and services.